createdAt,value
2019-06-01T00:01:55.591Z,7.20
2019-06-01T00:04:27.441Z,7.00
2019-06-01T00:06:58.124Z,6.67
2019-06-01T00:09:28.695Z,7.30
2019-06-01T00:11:59.301Z,7.17
2019-06-01T00:14:30.299Z,6.60
2019-06-01T00:17:01.026Z,8.27
2019-06-01T00:19:31.606Z,8.33
2019-06-01T00:22:02.196Z,6.77
2019-06-01T00:24:32.916Z,6.87
2019-06-01T00:27:03.821Z,6.57
2019-06-01T00:29:34.423Z,6.80
2019-06-01T00:32:05.166Z,6.63
2019-06-01T00:34:35.804Z,7.10
2019-06-01T00:37:06.403Z,6.43
2019-06-01T00:39:37.087Z,8.33
2019-06-01T00:42:07.714Z,6.27
2019-06-01T00:44:38.392Z,7.87
2019-06-01T00:47:08.969Z,7.10
2019-06-01T00:49:39.543Z,7.37
2019-06-01T00:52:10.235Z,6.53
2019-06-01T00:54:40.821Z,7.93
2019-06-01T00:57:11.411Z,7.20
2019-06-01T00:59:41.999Z,7.40
2019-06-01T01:02:13.658Z,7.20
2019-06-01T01:04:44.394Z,7.10
2019-06-01T01:07:15.036Z,7.13
2019-06-01T01:09:46.802Z,9.10
2019-06-01T01:12:17.569Z,9.50
2019-06-01T01:14:49.208Z,8.57
2019-06-01T01:17:20.850Z,8.50
2019-06-01T01:19:51.946Z,8.90
2019-06-01T01:22:22.584Z,9.17
2019-06-01T01:24:54.484Z,8.40
2019-06-01T01:27:25.319Z,8.13
2019-06-01T01:29:57.030Z,7.83
2019-06-01T01:32:27.758Z,8.43
2019-06-01T01:35:31.796Z,7.87
2019-06-01T01:38:02.375Z,7.77
2019-06-01T01:40:33.338Z,8.90
2019-06-01T01:43:04.597Z,8.57
2019-06-01T01:45:35.190Z,7.43
2019-06-01T01:48:07.305Z,8.03
2019-06-01T01:50:38.006Z,7.27
2019-06-01T01:53:10.273Z,7.73
2019-06-01T01:55:40.847Z,7.80
2019-06-01T01:58:11.428Z,8.10
2019-06-01T02:00:44.955Z,8.80
2019-06-01T02:03:15.831Z,7.47
2019-06-01T02:05:46.627Z,7.47
2019-06-01T02:08:17.342Z,8.20
2019-06-01T02:10:48.295Z,8.07
2019-06-01T02:13:18.893Z,8.03
2019-06-01T02:15:49.581Z,8.13
2019-06-01T02:18:20.648Z,8.57
2019-06-01T02:20:52.258Z,8.23
2019-06-01T02:23:23.308Z,7.57
2019-06-01T02:25:55.061Z,7.47
2019-06-01T02:28:25.623Z,8.57
2019-06-01T02:30:57.826Z,8.37
2019-06-01T02:33:29.636Z,9.70
2019-06-01T02:36:00.842Z,7.83
2019-06-01T02:38:32.690Z,8.47
2019-06-01T02:41:05.162Z,7.83
2019-06-01T02:43:35.624Z,8.67
2019-06-01T02:46:07.452Z,9.37
2019-06-01T02:48:38.257Z,9.30
2019-06-01T02:51:09.812Z,9.47
2019-06-01T02:53:40.390Z,8.53
2019-06-01T02:56:10.970Z,8.73
2019-06-01T02:58:41.652Z,8.37
2019-06-01T03:01:20.852Z,8.13
2019-06-01T03:03:52.362Z,8.73
2019-06-01T03:06:23.477Z,8.77
2019-06-01T03:08:57.706Z,9.70
2019-06-01T03:11:31.439Z,12.30
2019-06-01T03:14:06.609Z,10.70
2019-06-01T03:16:42.502Z,9.50
2019-06-01T03:19:16.646Z,10.03
2019-06-01T03:21:49.913Z,9.70
2019-06-01T03:24:23.897Z,9.27
2019-06-01T03:26:55.921Z,8.53
2019-06-01T03:29:29.444Z,8.73
2019-06-01T03:32:19.030Z,9.43
2019-06-01T03:34:33.019Z,10.00
2019-06-01T03:37:04.874Z,10.47
2019-06-01T03:39:35.853Z,9.73
2019-06-01T03:42:08.008Z,9.47
2019-06-01T03:44:39.957Z,9.77
2019-06-01T03:47:11.835Z,9.10
2019-06-01T03:49:42.716Z,8.57
2019-06-01T03:52:13.486Z,8.17
2019-06-01T03:54:44.153Z,9.17
2019-06-01T03:57:14.737Z,8.37
2019-06-01T03:59:45.411Z,8.50
2019-06-01T04:02:16.090Z,7.37
2019-06-01T04:04:46.881Z,7.63
2019-06-01T04:07:19.630Z,9.17
2019-06-01T04:09:50.391Z,8.50
2019-06-01T04:12:21.062Z,9.17
2019-06-01T04:14:52.958Z,9.27
2019-06-01T04:17:23.617Z,8.80
2019-06-01T04:19:54.396Z,8.83
2019-06-01T04:22:25.094Z,8.87
2019-06-01T04:24:56.844Z,7.50
2019-06-01T04:27:27.653Z,8.47
2019-06-01T04:29:58.404Z,8.50
2019-06-01T04:32:29.202Z,8.83
2019-06-01T04:35:00.008Z,10.50
2019-06-01T04:37:31.953Z,8.40
2019-06-01T04:40:03.325Z,9.37
2019-06-01T04:42:34.206Z,8.43
2019-06-01T04:45:09.037Z,9.60
2019-06-01T04:47:39.571Z,9.70
2019-06-01T04:50:13.042Z,8.97
2019-06-01T04:52:43.767Z,9.50
2019-06-01T04:55:15.190Z,10.10
2019-06-01T04:57:46.029Z,8.20
2019-06-01T05:00:26.005Z,9.00
2019-06-01T05:03:02.231Z,9.40
2019-06-01T05:05:22.399Z,8.00
2019-06-01T05:07:54.157Z,8.23
2019-06-01T05:10:25.808Z,10.23
2019-06-01T05:12:56.589Z,9.40
2019-06-01T05:15:27.265Z,9.57
2019-06-01T05:17:58.039Z,8.47
2019-06-01T05:20:28.664Z,9.17
2019-06-01T05:22:59.395Z,7.93
2019-06-01T05:25:30.360Z,7.90
2019-06-01T05:28:01.123Z,9.17
2019-06-01T05:30:31.835Z,7.90
2019-06-01T05:33:02.542Z,7.90
2019-06-01T05:35:33.206Z,8.13
2019-06-01T05:38:04.095Z,7.63
2019-06-01T05:40:34.852Z,8.30
2019-06-01T05:43:05.642Z,7.70
2019-06-01T05:45:36.323Z,8.30
2019-06-01T05:48:07.092Z,7.03
2019-06-01T05:50:37.887Z,8.27
2019-06-01T05:53:08.982Z,7.23
2019-06-01T05:55:39.688Z,11.90
2019-06-01T05:58:10.920Z,10.77
2019-06-01T06:00:47.482Z,7.60
2019-06-01T06:03:22.174Z,7.70
2019-06-01T06:05:50.739Z,9.00
2019-06-01T06:08:22.214Z,7.67
2019-06-01T06:10:52.988Z,7.97
2019-06-01T06:13:24.162Z,7.00
2019-06-01T06:15:55.019Z,6.93
2019-06-01T06:22:20.414Z,6.80
2019-06-01T06:24:50.908Z,6.20
2019-06-01T06:27:22.704Z,60.53
2019-06-01T06:29:53.445Z,56.23
2019-06-01T06:32:24.160Z,48.97
2019-06-01T06:34:55.812Z,14.47
2019-06-01T06:37:26.421Z,13.30
2019-06-01T06:39:57.116Z,11.20
2019-06-01T06:42:27.914Z,12.13
2019-06-01T06:44:58.491Z,8.40
2019-06-01T06:47:30.515Z,7.12
2019-06-01T06:50:01.173Z,8.85
2019-06-01T06:52:31.773Z,6.22
2019-06-01T06:55:02.492Z,6.10
2019-06-01T06:57:33.079Z,6.40
2019-06-01T07:00:05.469Z,6.35
2019-06-01T07:02:36.706Z,5.80
2019-06-01T07:05:07.942Z,5.10
2019-06-01T07:07:39.649Z,4.90
2019-06-01T07:10:10.694Z,4.37
2019-06-01T07:12:41.408Z,4.58
2019-06-01T07:15:12.391Z,4.60
2019-06-01T07:17:42.979Z,4.92
2019-06-01T07:20:13.683Z,4.92
2019-06-01T07:22:44.537Z,4.80
2019-06-01T07:25:15.163Z,4.62
2019-06-01T07:27:45.834Z,5.12
2019-06-01T07:30:16.808Z,5.90
2019-06-01T07:32:47.363Z,5.47
2019-06-01T07:35:17.940Z,5.03
2019-06-01T07:37:48.607Z,4.90
2019-06-01T07:40:21.000Z,6.08
2019-06-01T07:42:51.634Z,5.25
2019-06-01T07:45:22.869Z,6.60
2019-06-01T07:47:54.737Z,5.67
2019-06-01T07:50:25.976Z,4.70
2019-06-01T07:52:56.846Z,4.20
2019-06-01T07:55:27.640Z,4.55
2019-06-01T07:57:58.288Z,4.30
2019-06-01T08:00:29.871Z,4.37
2019-06-01T08:03:00.557Z,3.92
2019-06-01T08:05:32.204Z,3.67
2019-06-01T08:08:02.900Z,4.00
2019-06-01T08:10:33.543Z,3.22
2019-06-01T08:13:04.188Z,3.60
2019-06-01T08:15:36.456Z,3.90
2019-06-01T08:18:07.551Z,4.15
2019-06-01T08:20:38.145Z,4.03
2019-06-01T08:23:08.869Z,4.10
2019-06-01T08:25:39.504Z,3.90
2019-06-01T08:28:10.384Z,4.22
2019-06-01T08:30:40.950Z,3.62
2019-06-01T08:33:12.611Z,3.77
2019-06-01T08:35:43.335Z,4.55
2019-06-01T08:38:13.979Z,4.45
2019-06-01T08:40:44.619Z,4.05
2019-06-01T08:43:15.392Z,4.30
2019-06-01T08:45:46.790Z,4.50
2019-06-01T08:48:17.889Z,4.60
2019-06-01T08:50:50.249Z,3.52
2019-06-01T08:53:21.109Z,3.50
2019-06-01T08:55:51.654Z,3.00
2019-06-01T08:58:22.386Z,2.80
2019-06-01T09:00:53.012Z,3.60
2019-06-01T09:03:23.681Z,3.00
2019-06-01T09:05:54.250Z,3.37
2019-06-01T09:08:26.029Z,2.80
2019-06-01T09:10:57.304Z,3.72
2019-06-01T09:13:46.072Z,11.30
2019-06-01T09:16:16.675Z,3.55
2019-06-01T09:18:47.337Z,3.47
2019-06-01T09:21:18.005Z,4.05
2019-06-01T09:23:48.616Z,3.75
2019-06-01T09:26:20.576Z,3.83
2019-06-01T09:28:51.156Z,3.92
2019-06-01T09:31:22.140Z,3.50
2019-06-01T09:33:52.769Z,3.10
2019-06-01T09:36:23.337Z,3.00
2019-06-01T09:38:53.939Z,3.22
2019-06-01T09:41:24.522Z,2.77
2019-06-01T09:43:55.108Z,3.00
2019-06-01T09:46:26.897Z,2.90
2019-06-01T09:48:57.735Z,2.47
2019-06-01T09:51:29.476Z,3.35
2019-06-01T09:54:00.278Z,3.65
2019-06-01T09:56:33.497Z,3.42
2019-06-01T09:59:03.620Z,2.80
2019-06-01T10:01:34.450Z,3.37
2019-06-01T10:04:05.403Z,4.30
2019-06-01T10:06:36.701Z,7.70
2019-06-01T10:09:08.978Z,4.40
2019-06-01T10:11:39.549Z,4.35
2019-06-01T10:14:10.121Z,3.72
2019-06-01T10:16:40.693Z,4.75
2019-06-01T10:19:11.361Z,4.17
2019-06-01T10:21:42.202Z,4.62
2019-06-01T10:24:12.996Z,4.72
2019-06-01T10:26:43.619Z,4.40
2019-06-01T10:29:14.322Z,5.08
2019-06-01T10:31:45.011Z,7.72
2019-06-01T10:34:15.598Z,5.47
2019-06-01T10:36:46.170Z,5.60
2019-06-01T10:39:19.629Z,8.33
2019-06-01T10:41:49.129Z,5.12
2019-06-01T10:44:19.727Z,4.97
2019-06-01T10:46:50.395Z,4.80
2019-06-01T10:49:21.072Z,6.55
2019-06-01T10:51:51.827Z,5.03
2019-06-01T10:54:22.508Z,3.98
2019-06-01T10:56:53.425Z,4.45
2019-06-01T10:59:24.214Z,13.48
2019-06-01T11:01:54.794Z,4.90
2019-06-01T11:04:26.788Z,4.12
2019-06-01T11:07:03.418Z,4.03
2019-06-01T11:09:34.868Z,7.72
2019-06-01T11:12:05.801Z,4.30
2019-06-01T11:14:37.073Z,4.30
2019-06-01T11:17:07.902Z,4.30
2019-06-01T11:19:39.466Z,6.58
2019-06-01T11:22:10.458Z,6.12
2019-06-01T11:24:41.587Z,4.72
2019-06-01T11:27:12.415Z,4.60
2019-06-01T11:29:50.751Z,8.98
2019-06-01T11:32:15.284Z,4.80
2019-06-01T11:34:46.117Z,4.60
2019-06-01T11:37:16.806Z,21.45
2019-06-01T11:39:47.453Z,4.83
2019-06-01T11:42:20.034Z,4.22
2019-06-01T11:44:50.332Z,4.35
2019-06-01T11:47:20.988Z,5.22
2019-06-01T11:49:51.690Z,4.70
2019-06-01T11:52:22.364Z,4.83
2019-06-01T11:54:52.940Z,4.90
2019-06-01T11:57:24.559Z,4.53
2019-06-01T11:59:55.257Z,5.83
2019-06-01T12:02:25.817Z,4.62
2019-06-01T12:04:56.503Z,4.03
2019-06-01T12:07:27.372Z,3.72
2019-06-01T12:09:58.040Z,3.60
2019-06-01T12:12:28.757Z,3.00
2019-06-01T12:14:59.325Z,2.95
2019-06-01T12:17:30.016Z,3.12
2019-06-01T12:20:00.600Z,3.40
2019-06-01T12:22:31.394Z,3.35
2019-06-01T12:25:02.327Z,3.87
2019-06-01T12:27:33.085Z,5.20
2019-06-01T12:30:07.732Z,3.40
2019-06-01T12:32:38.324Z,3.40
2019-06-01T12:35:09.477Z,5.50
2019-06-01T12:38:00.888Z,3.22
2019-06-01T12:40:13.759Z,12.65
2019-06-01T12:42:45.940Z,4.75
2019-06-01T12:45:22.836Z,2.87
2019-06-01T12:47:55.517Z,4.12
2019-06-01T12:50:23.468Z,3.00
2019-06-01T12:52:54.209Z,3.75
2019-06-01T12:55:24.899Z,13.95
2019-06-01T12:57:55.664Z,8.08
2019-06-01T13:00:26.406Z,3.30
2019-06-01T13:03:07.198Z,3.60
2019-06-01T13:05:30.470Z,2.98
2019-06-01T13:08:02.996Z,3.02
2019-06-01T13:10:33.459Z,2.87
2019-06-01T13:13:04.050Z,3.42
2019-06-01T13:15:34.764Z,3.27
2019-06-01T13:18:05.338Z,2.70
2019-06-01T13:20:35.921Z,3.45
2019-06-01T13:23:06.601Z,3.80
2019-06-01T13:25:37.378Z,3.05
2019-06-01T13:28:08.249Z,2.35
2019-06-01T13:30:38.941Z,3.50
2019-06-01T13:33:09.614Z,2.95
2019-06-01T13:35:40.305Z,2.83
2019-06-01T13:38:12.490Z,3.02
2019-06-01T13:40:43.265Z,2.75
2019-06-01T13:43:14.435Z,3.12
2019-06-01T13:45:45.289Z,2.92
2019-06-01T13:48:15.891Z,2.52
2019-06-01T13:50:47.766Z,3.25
2019-06-01T13:53:18.403Z,3.25
2019-06-01T13:55:50.618Z,5.10
2019-06-01T13:58:21.297Z,14.53
2019-06-01T14:00:53.216Z,5.60
2019-06-01T14:03:24.037Z,3.55
2019-06-01T14:05:55.800Z,3.12
2019-06-01T14:08:29.292Z,3.80
2019-06-01T14:11:00.412Z,8.68
2019-06-01T14:13:31.266Z,4.40
2019-06-01T14:16:01.876Z,23.85
2019-06-01T14:18:32.612Z,4.40
2019-06-01T14:21:03.356Z,4.15
2019-06-01T14:23:34.418Z,4.87
2019-06-01T14:26:05.356Z,9.78
2019-06-01T14:28:35.939Z,3.37
2019-06-01T14:31:06.772Z,3.80
2019-06-01T14:33:37.358Z,3.37
2019-06-01T14:36:08.362Z,6.53
2019-06-01T14:38:46.827Z,3.45
2019-06-01T14:41:14.932Z,3.30
2019-06-01T14:43:46.887Z,3.47
2019-06-01T14:46:17.665Z,7.90
2019-06-01T14:48:49.350Z,9.73
2019-06-01T14:51:20.065Z,2.62
2019-06-01T14:53:51.660Z,2.42
2019-06-01T14:56:22.462Z,8.55
2019-06-01T14:58:53.988Z,5.55
2019-06-01T15:01:32.432Z,2.40
2019-06-01T15:03:59.728Z,2.50
2019-06-01T15:06:30.766Z,2.10
2019-06-01T15:09:15.557Z,2.55
2019-06-01T15:11:35.426Z,2.52
2019-06-01T15:14:07.048Z,2.75
2019-06-01T15:16:37.751Z,2.60
2019-06-01T15:19:08.376Z,2.20
2019-06-01T15:21:39.226Z,2.67
2019-06-01T15:24:09.917Z,2.60
2019-06-01T15:26:40.725Z,2.42
2019-06-01T15:29:11.374Z,2.00
2019-06-01T15:31:42.071Z,2.30
2019-06-01T15:34:12.626Z,3.55
2019-06-01T15:36:43.381Z,6.35
2019-06-01T15:39:24.383Z,3.42
2019-06-01T15:41:46.289Z,2.17
2019-06-01T15:44:17.586Z,2.40
2019-06-01T15:46:48.443Z,2.30
2019-06-01T15:49:22.079Z,2.05
2019-06-01T15:51:53.727Z,4.95
2019-06-01T15:54:27.014Z,2.72
2019-06-01T15:56:58.514Z,2.98
2019-06-01T15:59:29.200Z,2.75
2019-06-01T16:02:13.358Z,3.25
2019-06-01T16:04:55.156Z,3.42
2019-06-01T16:07:33.194Z,3.20
2019-06-01T16:10:13.721Z,7.33
2019-06-01T16:13:04.450Z,2.35
2019-06-01T16:15:35.438Z,3.10
2019-06-01T16:18:06.109Z,2.85
2019-06-01T16:20:36.791Z,2.55
2019-06-01T16:23:07.864Z,2.40
2019-06-01T16:25:38.580Z,2.60
2019-06-01T16:28:09.258Z,3.75
2019-06-01T16:30:41.681Z,2.65
2019-06-01T17:30:31.863Z,4.20
2019-06-01T17:33:02.625Z,4.73
2019-06-01T17:35:35.982Z,6.37
2019-06-01T17:38:07.300Z,4.57
2019-06-01T17:40:42.545Z,4.03
2019-06-01T17:43:10.688Z,2.60
2019-06-01T17:45:41.476Z,3.70
2019-06-01T17:48:24.719Z,8.77
2019-06-01T17:50:44.460Z,5.10
2019-06-01T17:53:15.146Z,3.90
2019-06-01T17:55:46.413Z,3.93
2019-06-01T17:58:17.570Z,4.97
2019-06-01T18:00:48.677Z,3.87
2019-06-01T18:03:19.363Z,3.63
2019-06-01T18:05:50.186Z,3.37
2019-06-01T18:08:21.523Z,3.87
2019-06-01T18:10:54.562Z,3.40
2019-06-01T18:13:24.840Z,4.97
2019-06-01T18:15:55.934Z,4.10
2019-06-01T18:18:26.722Z,3.63
2019-06-01T18:20:57.457Z,4.10
2019-06-01T18:23:28.195Z,4.43
2019-06-01T18:25:58.969Z,5.10
2019-06-01T18:28:30.297Z,6.80
2019-06-01T18:31:02.584Z,12.57
2019-06-01T18:33:34.621Z,9.20
2019-06-01T18:36:07.455Z,14.30
2019-06-01T18:38:39.347Z,8.97
2019-06-01T18:41:18.293Z,7.30
2019-06-01T18:43:43.391Z,6.07
2019-06-01T18:46:14.456Z,5.40
2019-06-01T18:48:45.315Z,6.03
2019-06-01T18:51:16.431Z,6.03
2019-06-01T18:53:47.161Z,5.77
2019-06-01T18:56:17.939Z,5.47
2019-06-01T18:58:50.125Z,5.40
2019-06-01T19:01:21.415Z,5.30
2019-06-01T19:03:52.439Z,5.77
2019-06-01T19:06:23.152Z,5.43
2019-06-01T19:08:54.565Z,6.40
2019-06-01T19:11:35.420Z,6.17
2019-06-01T19:14:00.354Z,8.07
2019-06-01T19:16:31.980Z,6.87
2019-06-01T19:19:04.287Z,6.60
2019-06-01T19:21:35.746Z,5.43
2019-06-01T19:24:06.490Z,4.80
2019-06-01T19:26:38.269Z,4.40
2019-06-01T19:29:09.139Z,4.93
2019-06-01T19:31:39.966Z,4.70
2019-06-01T19:34:11.006Z,4.93
2019-06-01T19:36:44.028Z,4.77
2019-06-01T19:39:15.523Z,5.10
2019-06-01T19:41:47.867Z,5.00
2019-06-01T19:44:19.124Z,5.23
2019-06-01T19:46:50.141Z,5.20
2019-06-01T19:49:21.544Z,5.20
2019-06-01T19:51:52.955Z,5.73
2019-06-01T19:54:23.765Z,6.57
2019-06-01T19:56:54.476Z,6.20
2019-06-01T19:59:25.432Z,7.73
2019-06-01T20:01:56.317Z,8.20
2019-06-01T20:04:27.756Z,8.53
2019-06-01T20:06:59.016Z,7.43
2019-06-01T20:09:31.771Z,7.50
2019-06-01T20:12:10.497Z,7.03
2019-06-01T20:14:35.961Z,6.90
2019-06-01T20:17:08.595Z,6.60
2019-06-01T20:19:42.425Z,6.93
2019-06-01T20:22:13.471Z,7.20
2019-06-01T20:24:50.131Z,8.57
2019-06-01T20:27:21.607Z,9.53
2019-06-01T20:29:53.926Z,9.57
2019-06-01T20:32:24.750Z,8.90
2019-06-01T20:34:58.747Z,8.53
2019-06-01T20:37:30.217Z,10.70
2019-06-01T20:40:01.174Z,10.90
2019-06-01T20:42:33.034Z,15.93
2019-06-01T20:45:05.915Z,12.97
2019-06-01T20:47:37.015Z,8.27
2019-06-01T20:50:09.121Z,7.50
2019-06-01T20:52:39.699Z,9.10
2019-06-01T20:55:12.884Z,8.57
2019-06-01T20:57:43.515Z,7.80
2019-06-01T21:00:15.918Z,7.93
2019-06-01T21:02:47.263Z,8.10
2019-06-01T21:05:22.012Z,8.90
2019-06-01T21:07:56.877Z,8.43
2019-06-01T21:10:25.182Z,8.13
2019-06-01T21:12:55.960Z,8.80
2019-06-01T21:15:26.676Z,8.50
2019-06-01T21:17:57.270Z,9.20
2019-06-01T21:20:30.025Z,9.97
2019-06-01T21:23:00.923Z,11.73
2019-06-01T21:25:31.694Z,9.87
2019-06-01T21:28:02.477Z,10.77
2019-06-01T21:30:33.223Z,11.40
2019-06-01T21:33:03.943Z,10.07
2019-06-01T21:35:34.664Z,8.80
2019-06-01T21:38:07.685Z,9.60
2019-06-01T21:40:38.522Z,10.13
2019-06-01T21:43:23.500Z,9.47
2019-06-01T21:45:42.063Z,10.60
2019-06-01T21:48:12.833Z,10.10
2019-06-01T21:50:43.907Z,9.77
2019-06-01T21:53:16.198Z,9.27
2019-06-01T21:55:46.889Z,9.40
2019-06-01T21:58:18.800Z,8.37
2019-06-01T22:00:49.951Z,8.33
2019-06-01T22:03:21.119Z,8.90
2019-06-01T22:05:51.916Z,9.07
2019-06-01T22:08:23.254Z,9.20
2019-06-01T22:10:54.089Z,7.93
2019-06-01T22:13:27.095Z,9.73
2019-06-01T22:15:57.461Z,9.90
2019-06-01T22:18:28.145Z,9.33
2019-06-01T22:20:58.827Z,8.83
2019-06-01T22:23:29.543Z,8.80
2019-06-01T22:26:01.176Z,8.90
2019-06-01T22:28:31.857Z,8.73
2019-06-01T22:31:02.556Z,9.33
2019-06-01T22:33:33.252Z,11.60
2019-06-01T22:36:04.017Z,9.60
2019-06-01T22:38:34.996Z,10.17
2019-06-01T22:41:05.625Z,9.83
2019-06-01T22:43:45.897Z,8.33
2019-06-01T22:46:08.709Z,10.80
2019-06-01T22:48:39.412Z,10.40
2019-06-01T22:51:10.091Z,10.27
2019-06-01T22:53:40.910Z,9.80
2019-06-01T22:56:11.593Z,10.13
2019-06-01T22:58:42.365Z,10.73
2019-06-01T23:01:13.057Z,9.50
2019-06-01T23:03:43.738Z,10.13
2019-06-01T23:06:16.008Z,11.10
2019-06-01T23:08:46.809Z,10.77
2019-06-01T23:11:17.508Z,9.97
2019-06-01T23:13:53.368Z,9.57
2019-06-01T23:16:21.567Z,9.83
2019-06-01T23:18:52.260Z,11.00
2019-06-01T23:21:23.710Z,10.40
2019-06-01T23:23:54.584Z,9.60
2019-06-01T23:26:26.157Z,9.80
2019-06-01T23:28:57.130Z,10.17
2019-06-01T23:31:28.492Z,10.07
2019-06-01T23:33:59.244Z,9.73
2019-06-01T23:36:30.676Z,10.33
2019-06-01T23:39:02.561Z,10.67
2019-06-01T23:41:33.305Z,10.57
2019-06-01T23:44:11.861Z,10.30
2019-06-01T23:46:36.859Z,10.47
2019-06-01T23:49:07.576Z,12.93
2019-06-01T23:51:38.280Z,11.33
2019-06-01T23:54:08.962Z,10.97
2019-06-01T23:56:39.647Z,11.40
2019-06-01T23:59:10.337Z,10.57
